Time;durP1;ratioP1;P1;durP2;ratioP2;P2;SDS_P1;SDS_P2;PMS_P1;PMS_P2;Temp;Humidity;BMP_temperature;BMP_pressure;BME280_temperature;BME280_humidity;BME280_pressure;Samples;Min_cycle;Max_cycle;Signal;HPM_P1;HPM_P2
2022/01/04 00:00:29;;;;;;;3.55;1.58;;;9.90;99.90;;;8.87;100.00;96534.22;4979182;28;20447;-68
2022/01/04 00:02:57;;;;;;;5.65;1.80;;;9.90;99.90;;;8.91;100.00;96548.66;4972140;28;20066;-69
2022/01/04 00:05:25;;;;;;;7.03;2.47;;;9.80;99.90;;;8.88;100.00;96502.25;4972114;28;20479;-69
2022/01/04 00:07:52;;;;;;;5.57;2.08;;;9.90;99.90;;;8.84;100.00;96493.81;4973626;28;20051;-69
2022/01/04 00:10:22;;;;;;;2.97;1.63;;;9.80;99.90;;;8.95;100.00;96503.59;4973653;28;20043;-69
2022/01/04 00:15:39;;;;;;;5.25;2.40;;;9.90;99.90;;;8.89;100.00;96476.28;4971352;28;20043;-69
2022/01/04 00:18:06;;;;;;;4.38;2.05;;;9.90;99.90;;;8.92;100.00;96494.25;4975531;28;20069;-69
2022/01/04 00:20:34;;;;;;;3.35;2.03;;;9.90;99.90;;;8.86;100.00;96484.22;4974977;28;20090;-69
2022/01/04 00:23:01;;;;;;;5.05;2.35;;;9.80;99.90;;;8.91;100.00;96476.22;4971893;28;20120;-69
2022/01/04 00:25:29;;;;;;;4.15;1.92;;;9.90;99.90;;;8.89;100.00;96473.69;4971221;28;20043;-69
2022/01/04 00:28:01;;;;;;;3.75;2.00;;;9.90;99.90;;;8.87;100.00;96500.56;4971919;28;20526;-69
2022/01/04 00:30:30;;;;;;;4.28;1.80;;;9.80;99.90;;;8.91;100.00;96466.69;4973030;28;20051;-70
2022/01/04 00:32:58;;;;;;;5.63;1.92;;;9.90;99.90;;;8.88;100.00;96456.50;4972035;28;20058;-69
2022/01/04 00:35:25;;;;;;;3.75;1.50;;;9.80;99.90;;;8.89;100.00;96454.75;4971315;28;20047;-69
2022/01/04 00:37:52;;;;;;;4.35;2.58;;;9.80;99.90;;;8.85;100.00;96448.91;4972308;28;20074;-69
2022/01/04 00:40:21;;;;;;;5.45;2.33;;;9.80;99.90;;;8.85;100.00;96497.22;4970279;28;20157;-69
2022/01/04 00:42:49;;;;;;;6.88;2.63;;;9.80;99.90;;;8.87;100.00;96446.22;4972191;28;20118;-69
2022/01/04 00:45:17;;;;;;;4.38;1.75;;;9.80;99.90;;;8.87;100.00;96441.91;4980585;28;20047;-69
2022/01/04 00:50:25;;;;;;;4.90;2.00;;;9.80;99.90;;;8.83;100.00;96387.81;4976631;28;20057;-69
2022/01/04 00:52:52;;;;;;;4.88;2.15;;;9.80;99.90;;;8.80;100.00;96401.75;4989778;28;20380;-69
2022/01/04 00:55:20;;;;;;;5.53;2.22;;;9.80;99.90;;;8.79;100.00;96395.72;4979315;28;20074;-69
2022/01/04 00:57:47;;;;;;;4.05;2.20;;;9.80;99.90;;;8.72;100.00;96409.94;4979768;28;20054;-68
2022/01/04 01:00:18;;;;;;;6.30;2.83;;;9.80;99.90;;;8.74;100.00;96376.22;4975659;28;20590;-69
2022/01/04 01:02:45;;;;;;;5.50;2.22;;;9.70;99.90;;;8.74;100.00;96402.91;4975604;28;20475;-69
2022/01/04 01:05:15;;;;;;;9.13;2.83;;;9.80;99.90;;;8.73;100.00;96366.78;4975118;28;20051;-69
2022/01/04 01:07:46;;;;;;;6.57;2.42;;;9.70;99.90;;;8.71;100.00;96381.53;4977769;28;20053;-69
2022/01/04 01:13:01;;;;;;;5.97;3.10;;;9.70;99.90;;;8.66;100.00;96373.19;4987358;28;20427;-69
2022/01/04 01:15:28;;;;;;;7.30;3.00;;;9.70;99.90;;;8.68;100.00;96354.09;4973456;28;20070;-69
2022/01/04 01:17:55;;;;;;;6.63;2.67;;;9.70;99.90;;;8.67;100.00;96359.38;4976163;28;20046;-69
2022/01/04 01:20:23;;;;;;;6.70;2.67;;;9.60;99.90;;;8.68;100.00;96345.50;4975708;28;20063;-69
2022/01/04 01:22:50;;;;;;;5.65;2.63;;;9.70;99.90;;;8.67;100.00;96317.97;4975043;28;20137;-69
2022/01/04 01:25:20;;;;;;;9.18;3.08;;;9.60;99.90;;;8.61;100.00;96355.34;4979312;28;20465;-68
2022/01/04 01:27:47;;;;;;;6.55;3.00;;;9.60;99.90;;;8.64;100.00;96341.41;4972774;28;20106;-69
2022/01/04 01:30:15;;;;;;;5.18;2.70;;;9.60;99.90;;;8.66;100.00;96331.81;4977632;28;20047;-69
2022/01/04 01:32:42;;;;;;;5.70;2.88;;;9.60;99.90;;;8.61;100.00;96341.59;4972879;28;20175;-69
2022/01/04 01:35:10;;;;;;;5.90;2.92;;;9.60;99.90;;;8.61;100.00;96359.69;4978562;28;20100;-69
2022/01/04 01:37:37;;;;;;;6.18;2.67;;;9.60;99.90;;;8.59;100.00;96360.59;4972794;28;20050;-68
2022/01/04 01:40:05;;;;;;;6.53;2.83;;;9.60;99.90;;;8.55;100.00;96322.91;4975109;28;20059;-68
2022/01/04 01:42:32;;;;;;;9.55;3.13;;;9.60;99.90;;;8.58;100.00;96333.06;4973402;28;20065;-68
2022/01/04 01:45:00;;;;;;;7.85;3.88;;;9.50;99.90;;;8.55;100.00;96302.22;4973152;28;20056;-69
2022/01/04 01:47:27;;;;;;;6.55;2.95;;;9.50;99.90;;;8.56;100.00;96319.38;4977836;28;20125;-67
2022/01/04 01:49:55;;;;;;;6.90;3.13;;;9.40;99.90;;;8.53;100.00;96332.50;4972427;28;20054;-69
2022/01/04 01:52:23;;;;;;;9.65;3.05;;;9.50;99.90;;;8.49;100.00;96270.69;4979029;28;20065;-68
2022/01/04 01:54:50;;;;;;;7.78;3.17;;;9.50;99.90;;;8.47;100.00;96299.19;4973033;28;20457;-68
2022/01/04 01:57:18;;;;;;;6.65;3.25;;;9.50;99.90;;;8.42;100.00;96296.03;4977719;28;20050;-68
2022/01/04 01:59:46;;;;;;;5.88;3.15;;;9.50;99.90;;;8.36;100.00;96288.56;4973819;28;20078;-69
2022/01/04 02:02:13;;;;;;;13.52;3.53;;;9.50;99.90;;;8.34;100.00;96280.91;4974745;28;20085;-68
2022/01/04 02:04:41;;;;;;;8.50;4.18;;;9.40;99.90;;;8.39;100.00;96280.63;4975935;28;20065;-69
2022/01/04 02:07:10;;;;;;;9.07;3.85;;;9.40;99.90;;;8.32;100.00;96277.56;4975204;28;20465;-69
2022/01/04 02:09:41;;;;;;;8.07;3.88;;;9.40;99.90;;;8.35;100.00;96282.56;4989160;28;20140;-68
2022/01/04 02:12:10;;;;;;;6.28;3.30;;;9.40;99.90;;;8.32;100.00;96276.72;4971879;28;20043;-69
2022/01/04 02:14:37;;;;;;;5.82;2.70;;;9.30;99.90;;;8.34;100.00;96251.63;4973349;28;20515;-68
2022/01/04 02:17:04;;;;;;;5.50;3.58;;;9.40;99.90;;;8.37;100.00;96241.13;4973528;28;20102;-69
2022/01/04 02:19:38;;;;;;;4.68;2.90;;;9.30;99.90;;;8.35;100.00;96230.88;4975020;28;20134;-69
2022/01/04 02:22:06;;;;;;;5.70;3.10;;;9.30;99.90;;;8.34;100.00;96242.09;4970126;28;20551;-69
2022/01/04 02:24:33;;;;;;;10.73;5.47;;;9.30;99.90;;;8.31;100.00;96233.72;4971702;28;20086;-69
2022/01/04 02:27:01;;;;;;;8.80;3.47;;;9.30;99.90;;;8.29;100.00;96251.06;4971487;28;20062;-68
2022/01/04 02:29:28;;;;;;;9.93;4.38;;;9.30;99.90;;;8.28;100.00;96233.84;4972419;28;20086;-68
2022/01/04 02:31:56;;;;;;;6.70;3.13;;;9.30;99.90;;;8.27;100.00;96234.78;4977927;28;20530;-68
2022/01/04 02:34:24;;;;;;;9.18;4.00;;;9.30;99.90;;;8.26;100.00;96202.94;4969599;28;20042;-68
2022/01/04 02:36:51;;;;;;;10.18;3.33;;;9.30;99.90;;;8.30;100.00;96191.53;4977602;28;20078;-69
2022/01/04 02:39:18;;;;;;;8.32;4.43;;;9.30;99.90;;;8.25;100.00;96203.00;4973132;28;20061;-68
2022/01/04 02:41:45;;;;;;;7.10;3.28;;;9.20;99.90;;;8.22;100.00;96200.59;4977727;28;20434;-68
2022/01/04 02:44:12;;;;;;;6.28;3.60;;;9.30;99.90;;;8.25;100.00;96205.59;4970743;28;20427;-68
2022/01/04 02:46:39;;;;;;;8.68;3.75;;;9.20;99.90;;;8.22;100.00;96216.13;4973642;28;20070;-68
2022/01/04 02:49:06;;;;;;;5.05;2.70;;;9.30;99.90;;;8.25;100.00;96209.00;4974661;28;20358;-69
2022/01/04 02:51:34;;;;;;;5.25;2.70;;;9.20;99.90;;;8.24;100.00;96180.69;4971892;28;20054;-68
2022/01/04 02:54:01;;;;;;;5.85;3.08;;;9.20;99.90;;;8.24;100.00;96212.53;4976544;28;20065;-68
2022/01/04 02:56:28;;;;;;;5.32;2.72;;;9.30;99.90;;;8.24;100.00;96178.09;4970523;28;20121;-69
2022/01/04 02:59:03;;;;;;;7.78;2.90;;;9.20;99.90;;;8.21;100.00;96165.31;4972109;28;20058;-69
2022/01/04 03:01:31;;;;;;;3.50;1.95;;;9.30;99.90;;;8.26;100.00;96163.34;4972991;28;20051;-69
2022/01/04 03:03:59;;;;;;;4.05;2.15;;;9.20;99.90;;;8.27;100.00;96180.50;4973908;28;20050;-69
2022/01/04 03:06:26;;;;;;;6.68;2.67;;;9.20;99.90;;;8.19;100.00;96173.19;4973646;28;20047;-69
2022/01/04 03:08:54;;;;;;;5.57;2.10;;;9.20;99.90;;;8.21;100.00;96170.50;4974387;28;20065;-69
2022/01/04 03:11:21;;;;;;;6.82;2.85;;;9.20;99.90;;;8.19;100.00;96152.50;4974513;28;20455;-68
2022/01/04 03:13:49;;;;;;;4.88;2.05;;;9.20;99.90;;;8.16;100.00;96153.50;4971250;28;20038;-69
2022/01/04 03:16:17;;;;;;;4.95;2.33;;;9.10;99.90;;;8.14;100.00;96162.25;4971504;28;20042;-68
2022/01/04 03:21:44;;;;;;;5.63;2.00;;;9.10;99.90;;;8.12;100.00;96123.59;4942241;28;20043;-69
2022/01/04 03:24:14;;;;;;;6.45;2.40;;;9.20;99.90;;;8.14;100.00;96129.50;4970678;28;20078;-69
2022/01/04 03:26:43;;;;;;;5.70;2.88;;;9.20;99.90;;;8.11;100.00;96126.25;4974577;28;20135;-68
2022/01/04 03:29:15;;;;;;;6.93;2.17;;;9.20;99.90;;;8.13;100.00;96109.72;4970733;28;20126;-68
2022/01/04 03:31:44;;;;;;;4.78;1.95;;;9.10;99.90;;;8.14;100.00;96113.13;4975368;28;20046;-68
2022/01/04 03:34:13;;;;;;;4.90;1.88;;;9.20;99.90;;;8.11;100.00;96118.50;4967396;28;20526;-68
2022/01/04 03:36:41;;;;;;;2.65;1.27;;;9.10;99.90;;;8.14;100.00;96118.31;4971123;28;20070;-68
2022/01/04 03:39:10;;;;;;;4.43;2.53;;;9.10;99.90;;;8.12;100.00;96096.91;4972675;28;20134;-67
2022/01/04 03:41:43;;;;;;;5.97;2.40;;;9.10;99.90;;;8.11;100.00;96126.25;4972532;28;20277;-69
2022/01/04 03:44:18;;;;;;;5.68;1.98;;;9.10;99.90;;;8.14;100.00;96090.72;4972572;28;20050;-68
2022/01/04 03:46:52;;;;;;;2.78;1.48;;;9.10;99.90;;;8.09;100.00;96092.72;4970017;28;20082;-69
2022/01/04 03:49:20;;;;;;;2.78;1.40;;;9.10;99.90;;;8.06;100.00;96081.75;4972261;28;20444;-69
2022/01/04 03:51:49;;;;;;;4.07;1.98;;;9.10;99.90;;;8.07;100.00;96091.97;4967876;28;20497;-68
2022/01/04 03:54:19;;;;;;;6.05;1.80;;;9.10;99.90;;;8.19;100.00;96082.72;4974839;28;20047;-68
2022/01/04 03:56:46;;;;;;;4.13;1.67;;;9.10;99.90;;;8.11;100.00;96064.22;4969820;28;20050;-68
2022/01/04 03:59:17;;;;;;;4.50;1.33;;;9.10;99.90;;;8.12;100.00;96064.16;4975366;28;20421;-67
2022/01/04 04:01:44;;;;;;;3.20;1.20;;;9.20;99.90;;;8.11;100.00;96066.81;4969240;28;20055;-68
2022/01/04 04:04:11;;;;;;;4.55;1.20;;;9.20;99.90;;;8.13;100.00;96039.13;4970021;28;20470;-68
2022/01/04 04:06:39;;;;;;;3.45;1.60;;;9.10;99.90;;;8.09;100.00;96045.38;4966167;28;20420;-68
2022/01/04 04:09:06;;;;;;;3.13;1.20;;;9.10;99.90;;;8.08;100.00;96031.63;4967250;28;20050;-69
2022/01/04 04:11:34;;;;;;;4.97;1.52;;;9.10;99.90;;;8.11;100.00;96009.94;4989304;28;20145;-69
2022/01/04 04:14:01;;;;;;;3.03;1.10;;;9.10;99.90;;;8.09;100.00;96029.88;4967198;28;20055;-68
2022/01/04 04:16:28;;;;;;;2.28;0.93;;;9.10;99.90;;;8.12;100.00;96029.72;4974386;28;20209;-67
2022/01/04 04:18:56;;;;;;;3.30;1.25;;;9.10;99.90;;;8.13;100.00;96033.97;4984545;28;20388;-69
2022/01/04 04:21:23;;;;;;;4.35;1.20;;;9.10;99.90;;;8.12;100.00;96009.06;4971403;28;20128;-68
2022/01/04 04:23:51;;;;;;;2.30;1.00;;;9.20;99.90;;;8.11;100.00;96007.38;4971957;28;20043;-69
2022/01/04 04:26:18;;;;;;;4.20;1.05;;;9.10;99.90;;;8.12;100.00;96009.06;4976015;28;20046;-68
2022/01/04 04:28:45;;;;;;;3.05;1.15;;;9.20;99.90;;;8.10;100.00;95985.03;4976684;28;20527;-69
2022/01/04 04:31:19;;;;;;;1.80;0.82;;;9.10;99.90;;;8.18;100.00;95996.56;4978236;28;20042;-68
2022/01/04 04:33:47;;;;;;;3.13;1.33;;;9.20;99.90;;;8.14;100.00;95973.59;4976463;28;20046;-68
2022/01/04 04:36:15;;;;;;;3.78;1.00;;;9.10;99.90;;;8.12;100.00;95986.63;4975122;28;20066;-68
2022/01/04 04:38:43;;;;;;;2.72;1.00;;;9.20;99.90;;;8.11;100.00;95978.94;4994105;28;20507;-69
2022/01/04 04:41:10;;;;;;;3.53;0.77;;;9.20;99.90;;;8.14;100.00;95951.19;4975999;28;20128;-69
2022/01/04 04:43:38;;;;;;;1.60;0.70;;;9.10;99.90;;;8.21;100.00;95958.53;4977014;28;20061;-68
2022/01/04 04:46:05;;;;;;;1.77;0.75;;;9.20;99.90;;;8.18;100.00;95959.56;4972080;28;20051;-69
2022/01/04 04:48:33;;;;;;;2.47;0.80;;;9.20;99.90;;;8.19;100.00;95937.97;4977131;28;20042;-68
2022/01/04 04:51:01;;;;;;;1.73;0.88;;;9.20;99.90;;;8.22;100.00;95963.63;4977413;28;20051;-69
2022/01/04 04:53:29;;;;;;;2.95;0.75;;;9.20;99.90;;;8.20;100.00;95954.31;4974514;28;20129;-68
2022/01/04 04:55:56;;;;;;;1.70;0.80;;;9.30;99.90;;;8.24;100.00;95941.13;4976310;28;20114;-70
2022/01/04 04:58:23;;;;;;;1.63;0.70;;;9.20;99.90;;;8.21;100.00;95954.22;4973347;28;20054;-68
2022/01/04 05:00:51;;;;;;;3.17;1.30;;;9.20;99.90;;;8.18;100.00;95957.81;4975144;28;20507;-68
2022/01/04 05:03:18;;;;;;;1.55;0.70;;;9.20;99.90;;;8.24;100.00;95927.38;4974275;28;20074;-68
2022/01/04 05:05:46;;;;;;;4.68;1.50;;;9.20;99.90;;;8.24;100.00;95935.13;4975607;28;20054;-68
2022/01/04 05:08:13;;;;;;;1.23;0.60;;;9.20;99.90;;;8.25;100.00;95929.84;4974109;28;20134;-68
2022/01/04 05:10:42;;;;;;;0.80;0.50;;;9.20;99.90;;;8.32;100.00;95927.72;4974628;28;20046;-67
2022/01/04 05:13:09;;;;;;;0.93;0.50;;;9.30;99.90;;;8.32;100.00;95951.00;4977565;28;20055;-68
2022/01/04 05:15:37;;;;;;;1.17;0.50;;;9.30;99.90;;;8.30;100.00;95945.94;4975790;28;20514;-68
2022/01/04 05:18:04;;;;;;;1.23;0.52;;;9.30;99.90;;;8.31;100.00;95926.06;4973745;28;20062;-68
2022/01/04 05:20:31;;;;;;;1.10;0.40;;;9.20;99.90;;;8.35;100.00;95930.16;4972659;28;20050;-68
2022/01/04 05:22:58;;;;;;;1.38;0.70;;;9.30;99.90;;;8.29;100.00;95944.25;4993725;28;20050;-68
2022/01/04 05:25:26;;;;;;;1.67;0.70;;;9.30;99.90;;;8.31;100.00;95903.63;4975947;28;20058;-69
2022/01/04 05:27:53;;;;;;;3.22;0.60;;;9.30;99.90;;;8.29;100.00;95889.97;4981344;28;20122;-68
2022/01/04 05:30:21;;;;;;;1.27;0.50;;;9.30;99.90;;;8.30;100.00;95902.00;4972859;28;20131;-68
2022/01/04 05:32:49;;;;;;;1.75;0.57;;;9.30;99.90;;;8.32;100.00;95882.00;4979325;28;20050;-68
2022/01/04 05:35:16;;;;;;;0.63;0.43;;;9.40;99.90;;;8.31;100.00;95888.13;4975796;28;20105;-68
2022/01/04 05:37:44;;;;;;;2.10;0.50;;;9.40;99.90;;;8.36;100.00;95886.09;4977668;28;20042;-68
2022/01/04 05:40:12;;;;;;;1.20;0.60;;;9.40;99.90;;;8.34;100.00;95885.34;4971664;28;20067;-68
2022/01/04 05:42:39;;;;;;;1.25;0.60;;;9.30;99.90;;;8.39;100.00;95882.47;4972468;28;20058;-68
2022/01/04 05:45:08;;;;;;;1.10;0.60;;;9.40;99.90;;;8.37;100.00;95874.84;4979157;28;20058;-68
2022/01/04 05:47:36;;;;;;;0.95;0.50;;;9.40;99.90;;;8.37;100.00;95877.41;4971325;28;20513;-67
2022/01/04 05:50:05;;;;;;;1.75;0.65;;;9.40;99.90;;;8.37;100.00;95871.44;4976318;28;20391;-68
2022/01/04 05:52:33;;;;;;;0.77;0.40;;;9.40;99.90;;;8.40;100.00;95848.00;4974285;28;20051;-68
2022/01/04 05:55:01;;;;;;;0.80;0.50;;;9.40;99.90;;;8.42;100.00;95881.53;4973960;28;20498;-69
2022/01/04 05:57:29;;;;;;;1.40;0.60;;;9.40;99.90;;;8.42;100.00;95863.41;4977379;28;20059;-68
2022/01/04 05:59:57;;;;;;;1.80;0.60;;;9.40;99.90;;;8.44;100.00;95833.97;4976402;28;20101;-68
2022/01/04 06:02:25;;;;;;;2.35;0.90;;;9.40;99.90;;;8.41;100.00;95854.00;4975190;28;20391;-69
2022/01/04 06:04:52;;;;;;;0.82;0.50;;;9.40;99.90;;;8.45;100.00;95835.59;4973610;28;20137;-68
2022/01/04 06:07:19;;;;;;;1.20;0.60;;;9.40;99.90;;;8.47;100.00;95849.28;4978002;28;20185;-68
2022/01/04 06:09:50;;;;;;;1.70;0.80;;;9.50;99.90;;;8.45;100.00;95847.72;4971519;28;20109;-68
2022/01/04 06:15:03;;;;;;;4.75;0.80;;;9.50;99.90;;;8.47;100.00;95831.16;4974320;28;20050;-68
2022/01/04 06:17:35;;;;;;;2.00;0.90;;;9.50;99.90;;;8.48;100.00;95837.16;4992743;28;20069;-68
2022/01/04 06:20:07;;;;;;;1.55;0.65;;;9.50;99.90;;;8.46;100.00;95821.75;4994334;28;20090;-67
2022/01/04 06:22:34;;;;;;;2.33;0.70;;;9.50;99.90;;;8.50;100.00;95848.25;4989646;28;20058;-68
2022/01/04 06:25:02;;;;;;;1.30;0.63;;;9.50;99.90;;;8.51;100.00;95835.22;4990614;28;20062;-68
2022/01/04 06:27:29;;;;;;;1.67;0.68;;;9.50;99.90;;;8.58;100.00;95809.81;4973033;28;20188;-67
2022/01/04 06:29:57;;;;;;;1.42;0.60;;;9.50;99.90;;;8.51;100.00;95839.59;4989891;28;20438;-69
2022/01/04 06:32:25;;;;;;;1.40;0.80;;;9.50;99.90;;;8.43;100.00;95801.25;4968964;28;20438;-68
2022/01/04 06:34:55;;;;;;;2.75;0.70;;;9.50;99.90;;;8.49;100.00;95829.31;4972178;28;20054;-67
2022/01/04 06:37:23;;;;;;;2.03;0.80;;;9.50;99.90;;;8.49;100.00;95818.97;4971028;28;20101;-68
2022/01/04 06:39:50;;;;;;;3.33;0.70;;;9.50;99.90;;;8.55;100.00;95817.75;4973772;28;20051;-70
2022/01/04 06:42:17;;;;;;;1.98;0.70;;;9.50;99.90;;;8.50;100.00;95787.00;4979847;28;20057;-69
2022/01/04 06:44:45;;;;;;;2.17;0.80;;;9.50;99.90;;;8.54;100.00;95803.19;4973521;28;20193;-69
2022/01/04 06:47:12;;;;;;;3.42;0.52;;;9.50;99.90;;;8.47;100.00;95809.66;4972535;28;20153;-68
2022/01/04 06:49:40;;;;;;;1.38;0.63;;;9.50;99.90;;;8.38;100.00;95772.25;4969721;28;20047;-69
2022/01/04 06:52:08;;;;;;;2.65;0.70;;;9.50;99.90;;;8.44;100.00;95792.59;4981688;28;20074;-69
2022/01/04 06:54:36;;;;;;;2.67;0.82;;;9.40;99.90;;;8.43;100.00;95774.56;4979006;28;20078;-69
2022/01/04 06:57:05;;;;;;;1.98;0.80;;;9.40;99.90;;;8.43;100.00;95790.09;4976775;28;20372;-69
2022/01/04 06:59:33;;;;;;;2.17;0.73;;;9.40;99.90;;;8.48;100.00;95757.84;4987155;28;20055;-69
2022/01/04 07:02:02;;;;;;;1.65;0.70;;;9.40;99.90;;;8.48;100.00;95777.69;4976152;28;20070;-69
2022/01/04 07:04:29;;;;;;;1.20;0.70;;;9.40;99.90;;;8.50;100.00;95739.66;4972884;28;20053;-69
2022/01/04 07:06:57;;;;;;;2.50;1.00;;;9.50;99.90;;;8.49;100.00;95763.84;4977302;28;20058;-70
2022/01/04 07:09:24;;;;;;;1.85;0.60;;;9.40;99.90;;;8.52;100.00;95774.00;4976298;28;20175;-69
2022/01/04 07:11:52;;;;;;;2.92;0.90;;;9.50;99.90;;;8.46;100.00;95761.44;4971834;28;20057;-68
2022/01/04 07:14:19;;;;;;;2.45;0.90;;;9.50;99.90;;;8.46;100.00;95751.97;4970047;28;20047;-69
2022/01/04 07:16:47;;;;;;;1.70;0.70;;;9.50;99.90;;;8.50;100.00;95750.00;4970291;28;20082;-69
2022/01/04 07:19:15;;;;;;;0.88;0.50;;;9.40;99.90;;;8.57;100.00;95712.47;4977699;28;20050;-69
2022/01/04 07:21:42;;;;;;;2.28;1.05;;;9.50;99.90;;;8.57;100.00;95767.59;4967944;28;20050;-69
2022/01/04 07:24:10;;;;;;;1.70;0.68;;;9.50;99.90;;;8.52;100.00;95736.03;4991721;28;20053;-69
2022/01/04 07:26:37;;;;;;;1.75;0.73;;;9.50;99.90;;;8.50;100.00;95730.13;4971588;28;20379;-70
2022/01/04 07:29:04;;;;;;;1.52;0.60;;;9.50;99.90;;;8.53;100.00;95734.25;4975045;28;20054;-69
2022/01/04 07:31:33;;;;;;;1.38;0.50;;;9.50;99.90;;;8.55;100.00;95800.50;4984311;28;20581;-68
2022/01/04 07:34:01;;;;;;;1.40;0.57;;;9.50;99.90;;;8.53;100.00;95755.81;4982623;28;20130;-69
2022/01/04 07:36:30;;;;;;;2.22;0.90;;;9.50;99.90;;;8.51;100.00;95728.38;4977029;28;20074;-69
2022/01/04 07:38:58;;;;;;;1.98;0.80;;;9.50;99.90;;;8.51;100.00;95746.50;4976684;28;20058;-68
2022/01/04 07:41:26;;;;;;;2.70;0.75;;;9.50;99.90;;;8.55;100.00;95728.09;4974358;28;20054;-69
2022/01/04 07:43:54;;;;;;;0.85;0.43;;;9.40;99.90;;;8.61;100.00;95698.41;4970254;28;20058;-69
2022/01/04 07:46:23;;;;;;;1.85;0.60;;;9.50;99.90;;;8.58;100.00;95709.78;4977270;28;20062;-69
2022/01/04 07:48:51;;;;;;;2.92;0.70;;;9.60;99.90;;;8.63;100.00;95725.00;4971010;28;20530;-69
2022/01/04 07:51:19;;;;;;;1.70;0.70;;;9.60;99.90;;;8.68;100.00;95722.94;4975867;28;20428;-69
2022/01/04 07:53:46;;;;;;;2.25;0.70;;;9.60;99.90;;;8.63;100.00;95698.31;4974994;28;20137;-68
2022/01/04 07:56:14;;;;;;;1.23;0.50;;;9.60;99.90;;;8.62;100.00;95699.22;4971052;28;20046;-69
2022/01/04 07:58:42;;;;;;;1.60;0.65;;;9.60;99.90;;;8.61;100.00;95690.66;4979022;28;20060;-69
2022/01/04 08:01:09;;;;;;;5.22;0.80;;;9.60;99.90;;;8.77;100.00;95708.59;4973956;28;20062;-69
2022/01/04 08:03:36;;;;;;;3.28;0.75;;;9.60;99.90;;;8.64;100.00;95694.78;4981899;28;20418;-68
2022/01/04 08:06:04;;;;;;;2.72;0.70;;;9.60;99.90;;;8.66;100.00;95680.00;4977212;28;20047;-69
2022/01/04 08:08:32;;;;;;;1.60;0.60;;;9.50;99.90;;;8.65;100.00;95688.72;4977924;28;20129;-69
2022/01/04 08:10:59;;;;;;;1.17;0.60;;;9.50;99.90;;;8.62;100.00;95670.78;4972811;28;20051;-69
2022/01/04 08:13:29;;;;;;;1.30;0.75;;;9.50;99.90;;;8.60;100.00;95650.22;4994834;28;20081;-68
2022/01/04 08:15:56;;;;;;;1.48;0.55;;;9.60;99.90;;;8.72;100.00;95669.28;4985620;28;20046;-69
2022/01/04 08:18:24;;;;;;;1.30;0.70;;;9.70;99.90;;;8.74;100.00;95644.13;4978257;28;20055;-70
2022/01/04 08:20:56;;;;;;;2.17;0.60;;;9.70;99.90;;;8.73;100.00;95647.63;4986868;28;20149;-70
2022/01/04 08:23:24;;;;;;;2.03;0.80;;;9.70;99.90;;;8.67;100.00;95668.75;4977217;28;20054;-69
2022/01/04 08:25:52;;;;;;;3.15;0.70;;;9.70;99.90;;;8.70;100.00;95640.91;4986114;28;20061;-69
2022/01/04 08:28:20;;;;;;;1.73;0.90;;;9.70;99.90;;;8.73;100.00;95630.34;4990501;28;20364;-69
2022/01/04 08:30:47;;;;;;;1.30;0.50;;;9.70;99.90;;;8.76;100.00;95689.66;4972295;28;20050;-68
2022/01/04 08:33:15;;;;;;;2.53;1.17;;;9.60;99.90;;;8.77;100.00;95657.69;4993051;28;20043;-70
2022/01/04 08:35:42;;;;;;;3.30;0.80;;;9.70;99.90;;;8.76;100.00;95658.63;4979551;28;20205;-69
2022/01/04 08:38:11;;;;;;;1.10;0.60;;;9.70;99.90;;;8.79;100.00;95647.25;4975860;28;20065;-70
2022/01/04 08:40:38;;;;;;;1.83;0.80;;;9.80;99.90;;;8.83;100.00;95653.88;4974999;28;20479;-69
2022/01/04 08:43:06;;;;;;;1.77;0.60;;;9.80;99.90;;;8.81;100.00;95634.22;4977726;28;20063;-68
2022/01/04 08:45:34;;;;;;;2.40;0.80;;;9.80;99.90;;;8.85;100.00;95653.75;4975992;28;20069;-69
2022/01/04 08:48:04;;;;;;;1.67;0.50;;;9.80;99.90;;;8.89;100.00;95640.50;4981486;28;20054;-68
2022/01/04 08:50:31;;;;;;;1.50;0.82;;;9.80;99.90;;;8.84;100.00;95652.94;4973972;28;20567;-69
2022/01/04 08:52:59;;;;;;;2.70;0.70;;;9.70;99.90;;;8.80;100.00;95643.72;4979876;28;20038;-69
2022/01/04 08:55:26;;;;;;;2.88;0.85;;;9.70;99.90;;;8.81;100.00;95616.91;4974560;28;20050;-69
2022/01/04 08:57:54;;;;;;;1.63;0.70;;;9.70;99.90;;;8.92;100.00;95639.50;4981275;28;20574;-68
2022/01/04 09:00:22;;;;;;;2.20;0.70;;;9.80;99.90;;;8.90;100.00;95662.88;4985824;28;20411;-69
2022/01/04 09:02:49;;;;;;;6.90;1.00;;;9.70;99.90;;;8.92;100.00;95642.09;4978143;28;20047;-69
2022/01/04 09:05:17;;;;;;;2.00;1.00;;;9.80;99.90;;;8.85;100.00;95623.56;4977037;28;20050;-69
2022/01/04 09:07:44;;;;;;;2.42;1.20;;;9.80;99.90;;;8.88;100.00;95640.63;4970014;28;20055;-69
2022/01/04 09:10:12;;;;;;;4.65;1.00;;;9.80;99.90;;;8.90;100.00;95618.91;4980089;28;20094;-69
2022/01/04 09:12:56;;;;;;;2.72;0.90;;;9.80;99.90;;;8.90;100.00;95639.59;4979836;28;20047;-69
2022/01/04 09:15:34;;;;;;;2.63;1.00;;;9.70;99.90;;;8.88;100.00;95622.53;4978319;28;20039;-69
2022/01/04 09:21:14;;;;;;;3.63;1.10;;;9.80;99.90;;;8.90;100.00;95618.91;4978078;28;20124;-69
2022/01/04 09:23:45;;;;;;;3.58;0.93;;;9.80;99.90;;;8.88;100.00;95633.69;4976160;28;20069;-69
2022/01/04 09:26:18;;;;;;;3.72;1.15;;;9.80;99.90;;;8.93;100.00;95646.31;4975288;28;20047;-68
2022/01/04 09:28:46;;;;;;;4.43;1.15;;;9.80;99.90;;;8.87;100.00;95623.44;4970033;28;20062;-69
2022/01/04 09:31:14;;;;;;;2.20;0.90;;;9.80;99.90;;;8.92;100.00;95621.38;4977981;28;20138;-69
2022/01/04 09:33:42;;;;;;;5.57;1.40;;;9.80;99.90;;;8.92;100.00;95632.56;4954816;28;20444;-70
2022/01/04 09:36:34;;;;;;;3.00;0.95;;;9.80;99.90;;;8.93;100.00;95700.66;4971658;28;20574;-69
2022/01/04 09:39:15;;;;;;;2.47;1.10;;;9.90;99.90;;;8.95;100.00;95645.28;4974902;28;20057;-70
2022/01/04 09:41:43;;;;;;;3.08;0.73;;;9.90;99.90;;;9.04;100.00;95645.59;4967416;28;20046;-69
2022/01/04 09:44:12;;;;;;;4.13;0.70;;;9.90;99.90;;;-146.41;100.00;57768.22;4973106;28;20047;-69
2022/01/04 09:46:41;;;;;;;4.53;1.00;;;9.90;99.90;;;-146.41;100.00;57768.22;4969925;28;20065;-70
2022/01/04 09:49:11;;;;;;;6.68;1.10;;;9.90;99.90;;;-146.41;100.00;57768.22;4987279;28;20097;-69
2022/01/04 09:51:40;;;;;;;4.35;1.30;;;9.90;99.90;;;9.09;100.00;95661.66;4975970;28;20050;-68
2022/01/04 09:54:08;;;;;;;2.15;0.80;;;9.90;99.90;;;9.10;100.00;95651.19;4979280;28;20064;-69
2022/01/04 09:56:35;;;;;;;2.33;0.70;;;9.90;99.90;;;9.15;100.00;95693.13;4980282;28;20109;-69
2022/01/04 09:59:04;;;;;;;4.38;1.20;;;10.00;99.90;;;9.14;100.00;95637.09;4979977;28;20062;-69
2022/01/04 10:01:38;;;;;;;2.20;0.95;;;10.00;99.90;;;9.08;100.00;95665.19;4975577;28;20440;-69
2022/01/04 10:04:23;;;;;;;2.08;0.95;;;10.00;99.90;;;8.99;100.00;95649.31;4977681;28;20066;-70
2022/01/04 10:07:06;;;;;;;3.13;0.93;;;10.00;99.90;;;9.06;100.00;95656.69;4983007;28;20042;-69
2022/01/04 10:09:38;;;;;;;;;;;10.00;99.90;;;9.04;100.00;95658.53;4991768;28;20133;-69
2022/01/04 10:12:06;;;;;;;3.80;1.23;;;10.00;99.90;;;9.02;100.00;95661.22;4985687;28;20323;-69
2022/01/04 10:14:44;;;;;;;3.08;0.75;;;10.00;99.90;;;8.99;100.00;95672.63;4986266;28;20050;-69
2022/01/04 10:17:20;;;;;;;3.17;1.25;;;10.00;99.90;;;9.00;100.00;95661.31;4995611;28;20157;-70
2022/01/04 10:19:53;;;;;;;2.95;0.85;;;10.00;99.90;;;9.08;100.00;95680.72;4971000;28;20121;-69
2022/01/04 10:22:27;;;;;;;3.70;0.90;;;10.00;99.90;;;9.05;100.00;95701.59;4974291;28;20059;-69
2022/01/04 10:25:03;;;;;;;2.63;0.90;;;10.00;99.90;;;9.02;100.00;95694.03;4961783;28;20069;-69
2022/01/04 10:27:41;;;;;;;4.10;0.88;;;10.00;99.90;;;9.05;100.00;95699.81;4984219;28;20050;-69
2022/01/04 10:30:22;;;;;;;2.45;0.85;;;10.00;99.90;;;8.98;100.00;95709.75;4974881;28;20050;-69
2022/01/04 10:33:06;;;;;;;1.23;0.30;;;9.90;99.90;;;8.20;100.00;95726.88;4993644;28;20103;-69
2022/01/04 10:35:45;;;;;;;4.90;0.60;;;9.70;99.90;;;7.81;100.00;95708.59;4987358;28;20073;-68
2022/01/04 10:38:19;;;;;;;1.05;0.38;;;9.10;99.90;;;7.42;100.00;95724.75;4972550;28;20049;-69
2022/01/04 10:40:46;;;;;;;2.97;0.20;;;8.70;99.90;;;6.77;100.00;95728.47;4971545;28;20459;-69
2022/01/04 10:43:21;;;;;;;0.85;0.20;;;8.10;99.90;;;6.74;100.00;95727.84;4974316;28;20073;-70
2022/01/04 10:45:50;;;;;;;0.50;0.22;;;8.00;99.90;;;6.37;100.00;95735.06;4969999;28;20542;-68
2022/01/04 10:48:27;;;;;;;1.92;0.30;;;7.70;99.90;;;6.17;100.00;95742.13;4975094;28;20078;-69